Time;durP1;ratioP1;P1;durP2;ratioP2;P2;SDS_P1;SDS_P2;PMS_P1;PMS_P2;Temp;Humidity;BMP_temperature;BMP_pressure;BME280_temperature;BME280_humidity;BME280_pressure;Samples;Min_cycle;Max_cycle;Signal;HPM_P1;HPM_P2
2021/09/17 00:02:08;;;;;;;2.70;1.83;;;;;;;16.46;67.75;100535.34;4901168;28;104882;-59
2021/09/17 00:04:34;;;;;;;3.40;1.92;;;;;;;16.45;67.86;100533.75;4901565;28;127554;-59
2021/09/17 00:07:00;;;;;;;3.05;1.92;;;;;;;16.44;67.87;100532.16;4902006;28;113382;-59
2021/09/17 00:09:26;;;;;;;2.88;1.95;;;;;;;16.43;67.57;100536.78;4901805;28;118737;-59
2021/09/17 00:11:52;;;;;;;3.20;1.80;;;;;;;16.42;67.83;100534.34;4901358;28;126750;-59
2021/09/17 00:14:18;;;;;;;3.53;1.70;;;;;;;16.39;68.16;100529.53;4902539;28;98462;-62
2021/09/17 00:16:44;;;;;;;3.58;1.60;;;;;;;16.38;68.00;100533.34;4900841;28;126298;-62
2021/09/17 00:19:11;;;;;;;1.80;1.63;;;;;;;16.36;68.11;100530.16;4903933;28;97801;-61
2021/09/17 00:21:37;;;;;;;3.13;1.60;;;;;;;16.35;68.32;100523.09;4901514;28;97860;-61
2021/09/17 00:24:03;;;;;;;2.95;1.92;;;;;;;16.34;68.41;100525.00;4901599;28;126863;-61
2021/09/17 00:26:29;;;;;;;4.13;1.90;;;;;;;16.33;68.68;100519.88;4900753;28;116004;-59
2021/09/17 00:28:55;;;;;;;2.60;1.80;;;;;;;16.33;68.42;100522.59;4901792;28;116927;-61
2021/09/17 00:31:21;;;;;;;4.30;1.75;;;;;;;16.32;68.59;100519.06;4901554;28;126640;-59
2021/09/17 00:33:47;;;;;;;3.03;1.67;;;;;;;16.32;68.42;100515.53;4901415;28;127849;-59
2021/09/17 00:36:13;;;;;;;2.63;1.58;;;;;;;16.30;68.61;100513.09;4901195;28;126816;-61
2021/09/17 00:38:39;;;;;;;2.78;1.88;;;;;;;16.31;68.50;100517.47;4901924;28;116710;-59
2021/09/17 00:41:05;;;;;;;3.72;1.63;;;;;;;16.30;68.53;100512.31;4900978;28;128908;-61
2021/09/17 00:43:31;;;;;;;3.40;1.58;;;;;;;16.32;68.79;100518.25;4900168;28;129142;-61
2021/09/17 00:45:57;;;;;;;2.40;1.40;;;;;;;16.31;68.74;100513.91;4901423;28;126216;-61
2021/09/17 00:48:23;;;;;;;3.28;1.60;;;;;;;16.31;68.84;100519.34;4901811;28;107608;-59
2021/09/17 00:50:49;;;;;;;2.40;1.20;;;;;;;16.31;68.56;100516.63;4901127;28;125356;-59
2021/09/17 00:53:15;;;;;;;3.15;1.58;;;;;;;16.31;68.72;100520.19;4899613;28;97864;-61
2021/09/17 00:55:41;;;;;;;2.95;1.48;;;;;;;16.29;68.52;100511.50;4899894;28;111270;-61
2021/09/17 00:58:07;;;;;;;2.97;1.60;;;;;;;16.29;68.93;100511.50;4884490;28;97806;-59
2021/09/17 01:00:33;;;;;;;3.75;1.63;;;;;;;16.29;68.74;100500.63;4900797;28;126432;-61
2021/09/17 01:02:59;;;;;;;2.80;1.45;;;;;;;16.27;68.79;100511.03;4900864;28;126309;-63
2021/09/17 01:05:26;;;;;;;2.33;1.45;;;;;;;16.24;69.19;100511.63;4882755;28;125305;-59
2021/09/17 01:07:52;;;;;;;3.35;1.70;;;;;;;16.23;68.53;100504.59;4901078;28;118571;-61
2021/09/17 01:10:18;;;;;;;3.50;1.50;;;;;;;16.22;68.97;100504.88;4900924;28;128525;-59
2021/09/17 01:12:44;;;;;;;3.33;1.60;;;;;;;16.23;69.05;100506.47;4898653;28;128389;-63
2021/09/17 01:15:10;;;;;;;2.80;1.80;;;;;;;16.22;68.78;100502.94;4883214;28;100320;-61
2021/09/17 01:17:42;;;;;;;3.20;1.65;;;;;;;16.20;69.07;100505.97;4900010;28;97943;-59
2021/09/17 01:20:13;;;;;;;2.97;1.45;;;;;;;16.19;69.10;100509.00;4901427;28;117379;-61
2021/09/17 01:22:39;;;;;;;3.65;1.40;;;;;;;16.18;68.80;100500.03;4900940;28;101327;-59
2021/09/17 01:25:07;;;;;;;4.35;1.73;;;;;;;16.19;69.09;100503.56;4900781;28;127749;-59
2021/09/17 01:27:33;;;;;;;4.53;1.52;;;;;;;16.19;68.93;100500.84;4900529;28;105900;-59
2021/09/17 01:29:59;;;;;;;2.88;1.30;;;;;;;16.18;69.08;100500.03;4898095;28;127967;-59
2021/09/17 01:32:25;;;;;;;3.00;1.50;;;;;;;16.20;69.08;100499.75;4900922;28;99162;-60
2021/09/17 01:34:51;;;;;;;3.13;1.65;;;;;;;16.20;68.98;100505.19;4900388;28;126357;-59
2021/09/17 01:37:17;;;;;;;3.50;1.20;;;;;;;16.20;69.51;100492.38;4900471;28;117760;-59
2021/09/17 01:39:43;;;;;;;2.35;1.30;;;;;;;16.19;69.58;100492.69;4900591;28;128080;-61
2021/09/17 01:42:09;;;;;;;4.70;1.17;;;;;;;16.20;69.30;100491.59;4900492;28;126778;-59
2021/09/17 01:44:37;;;;;;;3.38;1.20;;;;;;;16.19;69.19;100493.50;4900515;28;98090;-63
2021/09/17 01:47:03;;;;;;;2.17;1.10;;;;;;;16.21;68.96;100490.47;4901962;28;98003;-61
2021/09/17 01:49:29;;;;;;;2.92;1.08;;;;;;;16.20;69.11;100483.44;4899967;28;118899;-59
2021/09/17 01:51:55;;;;;;;3.25;1.33;;;;;;;16.21;68.77;100485.03;4899763;28;127946;-61
2021/09/17 01:54:21;;;;;;;4.80;1.40;;;;;;;16.21;69.06;100482.31;4900257;28;128172;-61
2021/09/17 01:56:47;;;;;;;3.40;1.17;;;;;;;16.21;69.00;100485.03;4900225;28;118673;-61
2021/09/17 01:59:13;;;;;;;2.85;1.13;;;;;;;16.20;69.34;100484.22;4900856;28;127944;-59
2021/09/17 02:01:39;;;;;;;2.22;1.40;;;;;;;16.20;69.08;100481.50;4881819;28;128739;-59
2021/09/17 02:04:06;;;;;;;3.92;1.20;;;;;;;16.22;68.62;100481.19;4899815;28;127944;-61
2021/09/17 02:06:32;;;;;;;3.20;1.27;;;;;;;16.22;68.91;100478.47;4900753;28;118007;-61
2021/09/17 02:08:58;;;;;;;4.88;1.48;;;;;;;16.20;68.96;100473.34;4900772;28;126911;-61
2021/09/17 02:11:24;;;;;;;5.03;1.50;;;;;;;16.21;68.89;100479.59;4901109;28;98552;-62
2021/09/17 02:13:50;;;;;;;3.15;1.50;;;;;;;16.20;68.91;100478.00;4899642;28;127895;-61
2021/09/17 02:16:17;;;;;;;3.13;1.60;;;;;;;16.20;68.75;100467.13;4900233;28;117710;-62
2021/09/17 02:18:43;;;;;;;2.65;1.30;;;;;;;16.18;68.88;100467.41;4899438;28;129323;-61
2021/09/17 02:21:09;;;;;;;3.47;1.80;;;;;;;16.17;68.83;100463.06;4901317;28;127708;-59
2021/09/17 02:23:35;;;;;;;3.35;1.73;;;;;;;16.17;68.92;100467.72;4902436;28;99325;-61
2021/09/17 02:26:01;;;;;;;4.80;1.27;;;;;;;16.18;68.97;100472.03;4903795;28;116266;-61
2021/09/17 02:28:27;;;;;;;5.38;1.50;;;;;;;16.17;68.87;100459.56;4902631;28;128500;-59
2021/09/17 02:30:53;;;;;;;3.97;1.52;;;;;;;16.18;69.19;100459.25;4901001;28;127392;-59
2021/09/17 02:33:19;;;;;;;2.40;1.30;;;;;;;16.19;69.04;100457.31;4903197;28;98765;-62
2021/09/17 02:35:48;;;;;;;3.17;1.30;;;;;;;16.19;68.65;100460.03;4885929;28;117963;-59
2021/09/17 02:38:15;;;;;;;4.10;1.70;;;;;;;16.19;68.86;100465.47;4903432;28;117928;-61
2021/09/17 02:40:41;;;;;;;3.05;1.20;;;;;;;16.20;68.96;100464.41;4886183;28;98275;-61
2021/09/17 02:43:07;;;;;;;3.65;1.45;;;;;;;16.18;68.75;100459.25;4902054;28;126493;-61
2021/09/17 02:45:33;;;;;;;4.65;1.50;;;;;;;16.18;68.80;100461.97;4900628;28;118419;-59
2021/09/17 02:47:59;;;;;;;4.53;1.58;;;;;;;16.18;69.06;100458.44;4902724;28;126572;-59
2021/09/17 02:50:25;;;;;;;4.18;1.40;;;;;;;16.17;69.17;100460.34;4902858;28;127567;-59
2021/09/17 02:52:51;;;;;;;3.28;1.45;;;;;;;16.16;69.11;100453.31;4902635;28;128155;-61
2021/09/17 02:55:18;;;;;;;4.13;1.60;;;;;;;16.16;68.68;100452.50;4904638;28;97828;-61
2021/09/17 02:57:44;;;;;;;3.85;1.50;;;;;;;16.15;68.95;100459.88;4901936;28;98180;-59
2021/09/17 03:00:10;;;;;;;5.95;1.90;;;;;;;16.14;68.72;100458.25;4902062;28;115333;-59
2021/09/17 03:02:36;;;;;;;2.53;1.42;;;;;;;16.13;69.28;100447.69;4869213;28;104902;-61
2021/09/17 03:05:03;;;;;;;4.80;1.70;;;;;;;16.11;69.08;100448.00;4903160;28;116638;-59
2021/09/17 03:07:29;;;;;;;2.28;1.30;;;;;;;16.11;69.22;100445.28;4902149;28;112596;-63
2021/09/17 03:09:55;;;;;;;5.30;1.63;;;;;;;16.12;68.84;100452.31;4902687;28;128097;-59
2021/09/17 03:12:21;;;;;;;3.40;1.52;;;;;;;16.11;69.09;100448.00;4901966;28;127064;-62
2021/09/17 03:14:47;;;;;;;3.45;1.40;;;;;;;16.12;68.96;100448.81;4903201;28;98034;-61
2021/09/17 03:17:13;;;;;;;3.67;1.52;;;;;;;16.12;68.79;100455.03;4902212;28;109144;-60
2021/09/17 03:19:39;;;;;;;4.32;1.40;;;;;;;16.12;69.06;100449.59;4902930;28;128219;-61
2021/09/17 03:22:05;;;;;;;3.72;1.80;;;;;;;16.14;69.24;100452.00;4901652;28;127711;-59
2021/09/17 03:24:31;;;;;;;3.22;1.13;;;;;;;16.13;69.28;100450.41;4904295;28;102919;-61
2021/09/17 03:26:57;;;;;;;3.80;1.52;;;;;;;16.13;68.83;100453.13;4901983;28;128031;-61
2021/09/17 03:29:23;;;;;;;3.00;1.48;;;;;;;16.13;69.28;100444.97;4901893;28;127902;-61
2021/09/17 03:31:50;;;;;;;2.83;1.27;;;;;;;16.13;69.06;100450.41;4901145;28;127100;-62
2021/09/17 03:34:16;;;;;;;3.90;1.45;;;;;;;16.11;68.85;100442.56;4900776;28;119400;-61
2021/09/17 03:36:42;;;;;;;3.17;1.60;;;;;;;16.12;69.25;100440.66;4902917;28;98137;-61
2021/09/17 03:39:12;;;;;;;3.00;1.45;;;;;;;16.11;69.16;100437.13;4903061;28;98389;-59
2021/09/17 03:41:39;;;;;;;3.78;1.27;;;;;;;16.11;69.29;100434.41;4901410;28;108660;-59
2021/09/17 03:44:05;;;;;;;2.47;1.67;;;;;;;16.10;69.06;100438.22;4901471;28;98014;-61
2021/09/17 03:46:32;;;;;;;5.47;1.80;;;;;;;16.10;69.25;100434.69;4901881;28;127853;-61
2021/09/17 03:48:58;;;;;;;3.90;1.50;;;;;;;16.08;69.13;100437.72;4902660;28;97900;-61
2021/09/17 03:51:24;;;;;;;4.55;1.60;;;;;;;16.08;69.33;100436.91;4902300;28;112043;-61
2021/09/17 03:53:51;;;;;;;5.35;1.83;;;;;;;16.08;69.18;100435.00;4903306;28;97845;-61
2021/09/17 03:56:17;;;;;;;3.92;1.60;;;;;;;16.11;69.30;100437.13;4901723;28;115129;-59
2021/09/17 03:58:43;;;;;;;4.32;1.80;;;;;;;16.17;69.22;100432.38;4900080;28;128034;-59
2021/09/17 04:01:09;;;;;;;3.20;1.50;;;;;;;16.23;69.15;100433.88;4899986;28;126442;-61
2021/09/17 04:03:35;;;;;;;3.05;1.60;;;;;;;16.28;68.72;100427.50;4901250;28;97998;-59
2021/09/17 04:06:01;;;;;;;3.15;1.50;;;;;;;16.32;68.63;100432.03;4899384;28;128076;-61
2021/09/17 04:08:27;;;;;;;4.80;1.40;;;;;;;16.36;68.67;100427.59;4899930;28;127144;-61
2021/09/17 04:10:53;;;;;;;3.05;1.20;;;;;;;16.40;68.38;100428.59;4900353;28;98622;-59
2021/09/17 04:13:19;;;;;;;4.22;1.58;;;;;;;16.41;68.63;100423.94;4902185;28;114856;-59
2021/09/17 04:15:45;;;;;;;3.22;1.42;;;;;;;16.45;68.53;100424.94;4901368;28;127813;-61
2021/09/17 04:18:11;;;;;;;2.42;1.23;;;;;;;16.47;68.44;100428.16;4901516;28;128702;-59
2021/09/17 04:20:38;;;;;;;4.78;1.40;;;;;;;16.50;68.61;100427.53;4902287;28;97926;-61
2021/09/17 04:23:04;;;;;;;3.92;1.30;;;;;;;16.49;68.29;100425.94;4902923;28;97996;-59
2021/09/17 04:25:30;;;;;;;3.63;1.30;;;;;;;16.52;68.02;100430.75;4900715;28;129072;-59
2021/09/17 04:27:56;;;;;;;3.20;1.50;;;;;;;16.52;68.32;100424.50;4901509;28;126822;-61
2021/09/17 04:30:22;;;;;;;3.22;1.20;;;;;;;16.52;67.57;100419.06;4867316;28;128775;-59
2021/09/17 04:32:48;;;;;;;2.47;1.13;;;;;;;16.52;67.99;100428.03;4884148;28;100287;-61
2021/09/17 04:35:15;;;;;;;3.53;1.40;;;;;;;16.52;67.92;100427.25;4900600;28;128998;-61
2021/09/17 04:37:46;;;;;;;5.80;1.48;;;;;;;16.51;68.24;100428.34;4901494;28;114052;-59
2021/09/17 04:40:14;;;;;;;4.85;1.38;;;;;;;16.50;68.39;100429.44;4900312;28;99168;-59
2021/09/17 04:42:40;;;;;;;4.13;1.50;;;;;;;16.51;68.47;100431.88;4901090;28;98111;-61
2021/09/17 04:45:07;;;;;;;3.58;1.35;;;;;;;16.49;68.32;100431.38;4899316;28;124269;-61
2021/09/17 04:47:33;;;;;;;2.72;1.33;;;;;;;16.50;68.38;100437.59;4901900;28;98510;-62
2021/09/17 04:50:02;;;;;;;5.15;1.33;;;;;;;16.50;68.28;100437.59;4901240;28;126179;-59
2021/09/17 04:52:28;;;;;;;3.65;1.33;;;;;;;16.48;68.42;100432.50;4901116;28;98119;-61
2021/09/17 04:54:54;;;;;;;3.35;1.40;;;;;;;16.50;68.75;100437.59;4901326;28;127503;-61
2021/09/17 04:57:20;;;;;;;3.33;1.50;;;;;;;16.49;68.25;100442.25;4900558;28;128089;-59
2021/09/17 04:59:46;;;;;;;2.40;1.30;;;;;;;16.49;68.13;100447.69;4901244;28;126450;-61
2021/09/17 05:02:12;;;;;;;3.88;1.50;;;;;;;16.48;68.34;100443.38;4901149;28;117032;-61
2021/09/17 05:04:38;;;;;;;4.03;1.75;;;;;;;16.46;68.58;100451.03;4900191;28;118346;-61
2021/09/17 05:07:04;;;;;;;3.72;1.52;;;;;;;16.44;68.62;100450.53;4900997;28;98973;-59
2021/09/17 05:09:32;;;;;;;2.40;1.60;;;;;;;16.43;68.83;100451.66;4900966;28;124274;-63
2021/09/17 05:11:58;;;;;;;3.63;1.77;;;;;;;16.42;68.71;100450.03;4900660;28;99234;-59
2021/09/17 05:14:24;;;;;;;4.35;2.20;;;;;;;16.40;68.41;100453.06;4900043;28;128605;-59
2021/09/17 05:16:50;;;;;;;4.55;2.10;;;;;;;16.38;68.79;100443.59;4899829;28;127100;-59
2021/09/17 05:19:18;;;;;;;3.50;2.05;;;;;;;16.35;68.69;100449.66;4900963;28;127287;-61
2021/09/17 05:21:45;;;;;;;3.47;2.13;;;;;;;16.35;68.45;100444.22;4901479;28;97927;-59
2021/09/17 05:24:11;;;;;;;3.67;1.92;;;;;;;16.36;68.86;100443.91;4900601;28;118002;-62
2021/09/17 05:26:37;;;;;;;4.50;2.10;;;;;;;16.39;68.27;100445.22;4899396;28;127974;-59
2021/09/17 05:29:03;;;;;;;4.78;2.05;;;;;;;16.38;68.64;100455.28;4900253;28;129008;-59
2021/09/17 05:31:29;;;;;;;2.80;1.70;;;;;;;16.39;68.67;100451.47;4901281;28;108028;-59
2021/09/17 05:33:55;;;;;;;3.17;1.75;;;;;;;16.41;68.48;100451.13;4900351;28;99142;-59
2021/09/17 05:36:21;;;;;;;4.22;2.28;;;;;;;16.42;68.50;100458.19;4900315;28;126300;-61
2021/09/17 05:38:47;;;;;;;4.60;2.00;;;;;;;16.43;68.89;100449.72;4898677;28;127495;-61
2021/09/17 05:41:14;;;;;;;2.92;2.08;;;;;;;16.44;68.67;100454.06;4898806;28;108264;-61
2021/09/17 05:43:41;;;;;;;5.82;2.22;;;;;;;16.43;69.07;100455.19;4901482;28;97995;-59
2021/09/17 05:46:07;;;;;;;4.05;2.15;;;;;;;16.44;68.86;100455.97;4900564;28;128696;-61
2021/09/17 05:48:33;;;;;;;4.28;2.35;;;;;;;16.40;69.18;100457.69;4898085;28;128620;-61
2021/09/17 05:50:59;;;;;;;4.18;2.25;;;;;;;16.37;69.64;100447.44;4899053;28;117176;-59
2021/09/17 05:53:25;;;;;;;6.80;2.30;;;;;;;16.37;69.75;100453.66;4901978;28;127759;-61
2021/09/17 05:55:51;;;;;;;6.25;2.30;;;;;;;16.37;69.59;100453.66;4901465;28;128290;-59
2021/09/17 05:58:17;;;;;;;5.13;2.33;;;;;;;16.39;69.05;100467.78;4902787;28;128563;-61
2021/09/17 06:00:43;;;;;;;4.28;2.15;;;;;;;16.45;69.52;100454.84;4905720;28;97910;-59
2021/09/17 06:03:09;;;;;;;5.40;1.80;;;;;;;16.47;69.12;100449.94;4901680;28;98400;-61
2021/09/17 06:05:35;;;;;;;3.00;2.05;;;;;;;16.55;68.73;100449.19;4886311;28;112415;-59
2021/09/17 06:08:01;;;;;;;3.22;2.00;;;;;;;16.62;68.70;100444.13;4903241;28;127403;-59
2021/09/17 06:10:27;;;;;;;2.50;1.70;;;;;;;16.66;68.92;100450.56;4904289;28;97792;-59
2021/09/17 06:12:53;;;;;;;2.97;2.03;;;;;;;16.66;68.95;100450.56;4902459;28;128763;-59
2021/09/17 06:15:19;;;;;;;3.97;2.00;;;;;;;16.68;68.61;100455.69;4903824;28;126755;-63
2021/09/17 06:17:46;;;;;;;4.03;2.28;;;;;;;16.65;68.80;100456.31;4903433;28;98164;-61
2021/09/17 06:20:12;;;;;;;3.58;1.60;;;;;;;16.65;68.90;100461.75;4904143;28;117243;-59
2021/09/17 06:22:45;;;;;;;3.22;1.90;;;;;;;16.70;68.77;100453.47;4885765;28;98644;-59
2021/09/17 06:25:15;;;;;;;3.03;1.90;;;;;;;16.75;68.62;100456.09;4902585;28;98106;-63
2021/09/17 06:27:42;;;;;;;3.25;1.85;;;;;;;16.81;68.68;100456.78;4903381;28;98219;-61
2021/09/17 06:30:08;;;;;;;4.18;1.90;;;;;;;16.85;68.42;100463.22;4902966;28;97957;-61
2021/09/17 06:32:34;;;;;;;3.38;1.90;;;;;;;16.80;68.42;100455.97;4884730;28;115946;-59
2021/09/17 06:35:00;;;;;;;3.42;1.33;;;;;;;16.88;68.55;100455.22;4903478;28;126816;-62
2021/09/17 06:37:26;;;;;;;4.00;1.80;;;;;;;16.99;67.47;100461.25;4902831;28;127852;-61
2021/09/17 06:39:52;;;;;;;3.13;1.40;;;;;;;17.06;67.76;100458.88;4903980;28;117652;-59
2021/09/17 06:42:18;;;;;;;2.15;1.30;;;;;;;17.11;67.44;100452.50;4902022;28;127550;-59
2021/09/17 06:44:44;;;;;;;3.03;1.90;;;;;;;17.14;67.43;100460.88;4903017;28;126080;-59
2021/09/17 06:47:12;;;;;;;2.67;1.52;;;;;;;17.17;67.67;100462.13;4901886;28;126665;-59
2021/09/17 06:49:38;;;;;;;3.08;1.73;;;;;;;17.21;67.46;100459.59;4904504;28;97746;-61
2021/09/17 06:52:04;;;;;;;3.05;1.60;;;;;;;17.23;67.47;100452.72;4907260;28;127008;-61
2021/09/17 06:54:30;;;;;;;3.22;1.45;;;;;;;17.29;67.16;100450.66;4902698;28;112029;-59
2021/09/17 06:56:56;;;;;;;2.90;1.65;;;;;;;17.42;66.61;100452.50;4902959;28;125255;-59
2021/09/17 06:59:22;;;;;;;2.17;1.75;;;;;;;17.51;66.54;100447.09;4903729;28;97895;-62
2021/09/17 07:01:48;;;;;;;3.25;1.80;;;;;;;17.59;66.48;100460.75;4885151;28;100404;-59
2021/09/17 07:04:14;;;;;;;2.70;1.40;;;;;;;17.72;66.29;100450.84;4901471;28;100426;-62
2021/09/17 07:06:40;;;;;;;3.88;1.70;;;;;;;17.96;64.92;100455.97;4902185;28;126199;-61
2021/09/17 07:09:06;;;;;;;2.45;1.25;;;;;;;18.10;65.14;100455.81;4902833;28;118445;-61
2021/09/17 07:11:32;;;;;;;3.17;1.40;;;;;;;18.18;64.75;100446.84;4902473;28;127874;-61
2021/09/17 07:13:59;;;;;;;2.13;1.42;;;;;;;18.21;64.77;100456.34;4903562;28;114028;-60
2021/09/17 07:16:25;;;;;;;3.20;1.20;;;;;;;18.25;64.92;100457.28;4902460;28;98129;-59
2021/09/17 07:18:51;;;;;;;2.17;1.20;;;;;;;18.32;64.54;100455.72;4903178;28;117680;-59
2021/09/17 07:21:17;;;;;;;2.88;1.00;;;;;;;18.23;64.43;100460.31;4902776;28;127892;-59
2021/09/17 07:23:44;;;;;;;2.38;1.20;;;;;;;18.29;64.14;100450.88;4903078;28;102378;-59
2021/09/17 07:26:10;;;;;;;3.90;1.27;;;;;;;18.25;64.14;100451.84;4902404;28;127859;-62
2021/09/17 07:28:36;;;;;;;2.60;1.10;;;;;;;18.33;63.92;100453.78;4903058;28;117112;-59
2021/09/17 07:31:02;;;;;;;1.90;0.88;;;;;;;18.43;63.27;100458.94;4884489;28;128902;-61
2021/09/17 07:33:28;;;;;;;1.85;0.70;;;;;;;18.61;63.16;100448.81;4883919;28;126011;-62
2021/09/17 07:35:54;;;;;;;2.15;0.80;;;;;;;18.75;62.88;100448.69;4900284;28;127947;-61
2021/09/17 07:38:20;;;;;;;3.42;0.82;;;;;;;18.89;61.62;100449.31;4901540;28;98212;-62
2021/09/17 07:40:46;;;;;;;2.45;1.02;;;;;;;19.05;61.73;100457.78;4900544;28;127158;-60
2021/09/17 07:43:12;;;;;;;2.85;0.90;;;;;;;19.22;61.30;100456.97;4901016;28;110307;-59
2021/09/17 07:45:38;;;;;;;3.17;0.70;;;;;;;19.38;60.73;100455.31;4901597;28;127191;-59
2021/09/17 07:48:05;;;;;;;2.95;0.90;;;;;;;19.77;60.27;100453.41;4902909;28;97802;-63
2021/09/17 07:50:31;;;;;;;2.55;0.80;;;;;;;19.96;59.54;100442.84;4902197;28;124687;-59
2021/09/17 07:52:57;;;;;;;2.05;0.60;;;;;;;20.29;58.86;100464.84;4884708;28;98722;-61
2021/09/17 07:55:23;;;;;;;3.28;0.50;;;;;;;20.34;58.98;100461.91;4901142;28;97933;-61
2021/09/17 07:57:49;;;;;;;2.55;0.40;;;;;;;20.24;58.37;100454.09;4901577;28;116698;-61
2021/09/17 08:00:16;;;;;;;2.53;0.50;;;;;;;20.01;59.12;100450.88;4902944;28;119538;-61
2021/09/17 08:02:43;;;;;;;3.42;0.50;;;;;;;19.79;59.09;100459.34;4901863;28;98930;-59
2021/09/17 08:05:09;;;;;;;2.03;0.30;;;;;;;19.61;59.54;100461.34;4902777;28;97985;-59
2021/09/17 08:07:35;;;;;;;3.42;0.50;;;;;;;19.39;59.61;100459.63;4903176;28;98375;-60
2021/09/17 08:10:04;;;;;;;1.45;0.40;;;;;;;19.16;60.35;100463.72;4902881;28;98847;-62
2021/09/17 08:12:30;;;;;;;3.25;0.60;;;;;;;19.06;60.37;100470.31;4899808;28;98024;-59
2021/09/17 08:14:56;;;;;;;2.83;0.50;;;;;;;18.94;60.45;100464.72;4902520;28;98157;-62
2021/09/17 08:17:22;;;;;;;1.20;0.30;;;;;;;18.92;60.27;100464.25;4902324;28;116637;-62
2021/09/17 08:19:48;;;;;;;6.05;0.68;;;;;;;18.79;60.68;100455.91;4902518;28;118479;-59
2021/09/17 08:22:14;;;;;;;6.78;0.50;;;;;;;18.69;60.91;100469.03;4902490;28;107958;-59
2021/09/17 08:24:40;;;;;;;1.52;0.35;;;;;;;18.82;60.46;100462.63;4900689;28;123996;-59
2021/09/17 08:27:06;;;;;;;1.48;0.50;;;;;;;19.01;59.69;100459.56;4902699;28;97810;-59
2021/09/17 08:29:32;;;;;;;1.50;0.50;;;;;;;19.06;59.73;100464.84;4901421;28;126232;-60
2021/09/17 08:31:59;;;;;;;2.60;0.60;;;;;;;18.99;59.56;100468.09;4901157;28;113001;-59
2021/09/17 08:34:25;;;;;;;2.70;0.73;;;;;;;18.83;60.28;100458.78;4901907;28;97967;-60
2021/09/17 08:36:51;;;;;;;2.10;0.63;;;;;;;18.72;60.72;100473.91;4902856;28;97836;-59
2021/09/17 08:39:18;;;;;;;1.67;0.90;;;;;;;18.62;60.99;100467.59;4902257;28;98629;-61
2021/09/17 08:41:44;;;;;;;3.17;0.85;;;;;;;18.49;61.21;100462.28;4902366;28;98864;-59
2021/09/17 08:44:10;;;;;;;2.08;0.73;;;;;;;18.43;61.66;100471.75;4899588;28;106319;-62
2021/09/17 08:46:41;;;;;;;1.90;0.82;;;;;;;18.46;61.09;100473.84;4901126;28;112615;-60
2021/09/17 08:49:07;;;;;;;2.20;0.90;;;;;;;18.43;61.28;100475.31;4902078;28;99132;-61
2021/09/17 08:51:33;;;;;;;2.10;0.90;;;;;;;18.53;60.61;100477.72;4901398;28;98405;-59
2021/09/17 08:54:02;;;;;;;2.42;0.80;;;;;;;18.74;60.98;100477.09;4901577;28;126880;-61
2021/09/17 08:56:28;;;;;;;2.03;0.55;;;;;;;18.84;60.38;100474.03;4901501;28;97817;-62
2021/09/17 08:58:54;;;;;;;1.20;0.40;;;;;;;18.83;60.42;100475.97;4901355;28;128101;-59
2021/09/17 09:01:32;;;;;;;2.42;0.68;;;;;;;18.78;60.42;100478.06;4900599;28;125777;-59
2021/09/17 09:04:02;;;;;;;1.88;0.50;;;;;;;18.75;59.85;100476.78;4901282;28;98456;-62
2021/09/17 09:06:34;;;;;;;1.60;0.57;;;;;;;18.81;59.99;100480.94;4901593;28;97897;-62
2021/09/17 09:09:01;;;;;;;2.38;0.50;;;;;;;18.74;60.12;100475.16;4902225;28;106150;-59
2021/09/17 09:11:30;;;;;;;2.05;0.60;;;;;;;18.64;60.25;100475.47;4900991;28;99082;-59
2021/09/17 09:14:04;;;;;;;1.85;0.70;;;;;;;18.48;60.85;100477.88;4899947;28;98959;-59
2021/09/17 09:16:31;;;;;;;3.45;0.60;;;;;;;18.31;61.65;100475.09;4901570;28;97894;-63
2021/09/17 09:18:58;;;;;;;2.60;1.00;;;;;;;18.16;62.24;100481.84;4902878;28;98501;-61
2021/09/17 09:21:29;;;;;;;3.45;0.93;;;;;;;18.21;62.03;100478.94;4898780;28;98368;-63
2021/09/17 09:24:16;;;;;;;2.60;1.10;;;;;;;18.46;61.51;100479.31;4902224;28;111018;-62
2021/09/17 09:26:44;;;;;;;2.97;0.90;;;;;;;18.54;61.77;100486.69;4901871;28;98047;-60
2021/09/17 09:29:29;;;;;;;2.15;0.90;;;;;;;18.54;61.73;100483.97;4904755;28;98741;-62
2021/09/17 09:31:55;;;;;;;2.30;0.82;;;;;;;18.43;62.31;100478.03;4903546;28;119663;-60
2021/09/17 09:34:24;;;;;;;2.05;0.77;;;;;;;18.25;63.25;100482.66;4904560;28;120050;-59
2021/09/17 09:37:11;;;;;;;1.80;1.05;;;;;;;18.06;63.69;100487.56;4905066;28;99134;-59
2021/09/17 09:39:56;;;;;;;1.63;1.13;;;;;;;18.01;63.74;100479.56;4904446;28;126940;-59
2021/09/17 09:42:37;;;;;;;2.53;1.30;;;;;;;18.07;63.87;100484.53;4904695;28;98519;-59
2021/09/17 09:45:14;;;;;;;3.42;1.90;;;;;;;18.14;64.00;100484.88;4903898;28;98333;-59
2021/09/17 09:47:41;;;;;;;2.22;1.70;;;;;;;18.40;64.36;100475.94;4904984;28;98072;-61
2021/09/17 09:50:13;;;;;;;3.05;1.65;;;;;;;18.62;63.16;100483.97;4904612;28;108018;-61
2021/09/17 09:52:39;;;;;;;3.53;1.30;;;;;;;18.78;63.89;100480.78;4903968;28;98733;-61
2021/09/17 09:55:06;;;;;;;3.13;2.03;;;;;;;18.96;63.61;100476.13;4905310;28;97907;-59
2021/09/17 09:57:32;;;;;;;2.15;1.38;;;;;;;19.11;63.44;100470.16;4904539;28;97789;-61
2021/09/17 10:00:07;;;;;;;3.60;1.80;;;;;;;19.21;62.99;100467.06;4904683;28;98903;-61
2021/09/17 10:02:34;;;;;;;1.98;1.40;;;;;;;19.10;63.23;100474.03;4903467;28;98334;-61
2021/09/17 10:05:00;;;;;;;2.83;1.60;;;;;;;19.18;62.90;100473.22;4902461;28;119634;-61
2021/09/17 10:07:29;;;;;;;2.17;1.08;;;;;;;19.11;63.44;100481.88;4885034;28;119775;-61
2021/09/17 10:09:59;;;;;;;5.38;1.35;;;;;;;19.06;63.70;100476.59;4905345;28;99381;-63
2021/09/17 10:12:26;;;;;;;3.30;1.50;;;;;;;19.01;63.87;100473.22;4896575;28;100627;-60
2021/09/17 10:14:52;;;;;;;1.92;1.30;;;;;;;18.84;64.15;100472.13;4905135;28;97934;-59
2021/09/17 10:17:22;;;;;;;2.55;1.55;;;;;;;18.69;64.37;100475.31;4870692;28;98702;-61
2021/09/17 10:19:49;;;;;;;2.80;1.60;;;;;;;18.58;64.62;100482.19;4902426;28;98698;-59
2021/09/17 10:22:33;;;;;;;1.70;1.05;;;;;;;18.50;64.48;100477.53;4904192;28;98190;-59
2021/09/17 10:25:16;;;;;;;2.22;1.00;;;;;;;18.36;64.62;100478.50;4904287;28;98274;-62
2021/09/17 10:28:00;;;;;;;2.67;0.60;;;;;;;18.40;64.45;100484.13;4904680;28;97802;-61
2021/09/17 10:30:28;;;;;;;1.67;0.63;;;;;;;18.64;63.90;100486.38;4904249;28;104632;-61
2021/09/17 10:32:54;;;;;;;1.17;0.50;;;;;;;18.96;63.03;100478.84;4885717;28;116351;-59
2021/09/17 10:35:43;;;;;;;2.53;0.60;;;;;;;19.42;62.27;100474.59;4903817;28;109474;-61
2021/09/17 10:38:30;;;;;;;1.25;0.60;;;;;;;20.48;59.82;100469.06;4902831;28;99363;-61
2021/09/17 10:41:04;;;;;;;2.40;0.40;;;;;;;21.56;57.42;100471.78;4904061;28;98153;-59
2021/09/17 10:43:40;;;;;;;2.92;0.50;;;;;;;21.32;58.38;100469.75;4904301;28;97883;-61
2021/09/17 10:46:08;;;;;;;1.48;0.50;;;;;;;21.28;58.09;100468.84;4904241;28;97835;-61
2021/09/17 10:48:48;;;;;;;1.20;0.50;;;;;;;20.90;59.34;100475.34;4904214;28;97886;-61
2021/09/17 10:51:35;;;;;;;3.22;0.50;;;;;;;20.61;59.75;100475.44;4904084;28;98269;-61
2021/09/17 10:54:19;;;;;;;1.20;0.38;;;;;;;20.43;59.07;100472.00;4887052;28;98797;-60
2021/09/17 10:56:48;;;;;;;0.95;0.30;;;;;;;20.46;58.83;100466.66;4884563;28;98070;-59
2021/09/17 10:59:20;;;;;;;1.02;0.30;;;;;;;20.59;57.94;100460.16;4885509;28;97962;-60
2021/09/17 11:02:07;;;;;;;1.08;0.30;;;;;;;20.83;58.10;100462.19;4890962;28;98799;-60
2021/09/17 11:04:39;;;;;;;0.90;0.28;;;;;;;20.87;57.10;100466.97;4903725;28;98000;-59
2021/09/17 11:07:17;;;;;;;1.13;0.30;;;;;;;20.72;57.82;100463.75;4885986;28;97980;-60
2021/09/17 11:09:47;;;;;;;2.28;0.30;;;;;;;;;;4904945;28;97929;-61
2021/09/17 11:12:22;;;;;;;2.05;0.20;;;;;;;20.46;58.20;100463.13;4902937;28;98872;-62
2021/09/17 11:15:12;;;;;;;0.75;0.20;;;;;;;20.27;58.30;100463.56;4904235;28;98271;-60
2021/09/17 11:17:58;;;;;;;2.08;0.30;;;;;;;20.02;58.08;100460.66;4902841;28;98258;-59
2021/09/17 11:20:26;;;;;;;1.30;0.30;;;;;;;19.85;58.99;100464.31;4903739;28;97920;-59
2021/09/17 11:23:03;;;;;;;1.33;0.25;;;;;;;19.72;59.43;100461.78;4902387;28;98877;-61
2021/09/17 11:25:32;;;;;;;1.33;0.30;;;;;;;19.66;59.22;100461.19;4903383;28;98522;-61